createdAt,value
2022-11-07T00:00:55.139Z,8.98
2022-11-07T00:03:13.413Z,8.99
2022-11-07T00:05:30.674Z,8.98
2022-11-07T00:07:48.006Z,9.00
2022-11-07T00:10:05.278Z,9.00
2022-11-07T00:12:23.620Z,9.02
2022-11-07T00:14:40.650Z,9.04
2022-11-07T00:16:58.059Z,9.06
2022-11-07T00:19:16.012Z,9.07
2022-11-07T00:21:33.072Z,9.07
2022-11-07T00:23:50.431Z,9.09
2022-11-07T00:26:07.673Z,9.10
2022-11-07T00:28:24.668Z,9.11
2022-11-07T00:30:41.712Z,9.10
2022-11-07T00:33:00.273Z,9.11
2022-11-07T00:35:17.956Z,9.12
2022-11-07T00:37:34.942Z,9.08
2022-11-07T00:39:51.919Z,9.04
2022-11-07T00:42:08.970Z,8.96
2022-11-07T00:44:25.966Z,8.90
2022-11-07T00:46:43.022Z,8.85
2022-11-07T00:49:00.369Z,8.79
2022-11-07T00:51:17.247Z,8.72
2022-11-07T00:53:34.207Z,8.72
2022-11-07T00:55:51.786Z,8.71
2022-11-07T00:58:13.599Z,8.72
2022-11-07T01:00:31.618Z,8.71
2022-11-07T01:02:48.735Z,8.69
2022-11-07T01:05:05.936Z,8.69
2022-11-07T01:07:23.414Z,8.68
2022-11-07T01:09:40.456Z,8.69
2022-11-07T01:11:57.478Z,8.73
2022-11-07T01:14:14.403Z,8.75
2022-11-07T01:16:31.457Z,8.75
2022-11-07T01:18:49.441Z,8.78
2022-11-07T01:21:06.489Z,8.79
2022-11-07T01:23:23.573Z,8.79
2022-11-07T01:25:42.555Z,8.85
2022-11-07T01:27:59.822Z,8.87
2022-11-07T01:30:17.816Z,8.88
2022-11-07T01:32:34.884Z,8.88
2022-11-07T01:34:52.191Z,8.89
2022-11-07T01:37:09.167Z,8.92
2022-11-07T01:39:26.165Z,8.94
2022-11-07T01:41:44.081Z,8.95
2022-11-07T01:44:01.302Z,8.96
2022-11-07T01:46:18.724Z,8.95
2022-11-07T01:48:35.993Z,8.96
2022-11-07T01:50:53.227Z,8.96
2022-11-07T01:53:10.236Z,8.96
2022-11-07T01:55:28.167Z,8.98
2022-11-07T01:57:45.418Z,8.98
2022-11-07T02:00:02.356Z,8.98
2022-11-07T02:02:19.733Z,9.00
2022-11-07T02:04:36.750Z,9.01
2022-11-07T02:06:53.691Z,9.01
2022-11-07T02:09:11.947Z,9.00
2022-11-07T02:11:28.902Z,9.01
2022-11-07T02:13:45.798Z,9.01
2022-11-07T02:16:03.705Z,8.99
2022-11-07T02:18:20.703Z,8.98
2022-11-07T02:20:38.653Z,8.94
2022-11-07T02:22:55.534Z,8.87
2022-11-07T02:25:12.505Z,8.81
2022-11-07T02:27:29.749Z,8.78
2022-11-07T02:29:46.938Z,8.76
2022-11-07T02:32:04.276Z,8.76
2022-11-07T02:34:21.178Z,8.75
2022-11-07T02:36:38.432Z,8.77
2022-11-07T02:38:55.397Z,8.81
2022-11-07T02:41:13.452Z,8.84
2022-11-07T02:43:30.747Z,8.85
2022-11-07T02:45:48.249Z,8.86
2022-11-07T02:48:05.488Z,8.87
2022-11-07T02:50:24.207Z,8.88
2022-11-07T02:52:41.156Z,8.91
2022-11-07T02:54:58.195Z,8.91
2022-11-07T02:57:15.122Z,8.91
2022-11-07T02:59:32.149Z,8.93
2022-11-07T03:01:49.231Z,8.94
2022-11-07T03:04:06.376Z,8.95
2022-11-07T03:06:23.492Z,8.96
2022-11-07T03:08:40.731Z,8.96
2022-11-07T03:10:57.783Z,8.98
2022-11-07T03:13:15.276Z,9.01
2022-11-07T03:15:33.031Z,8.98
2022-11-07T03:17:49.939Z,8.97
2022-11-07T03:20:07.167Z,8.98
2022-11-07T03:22:24.387Z,9.01
2022-11-07T03:24:41.740Z,8.97
2022-11-07T03:26:59.709Z,9.01
2022-11-07T03:29:17.713Z,9.00
2022-11-07T03:31:34.776Z,9.02
2022-11-07T03:33:51.753Z,9.02
2022-11-07T03:36:08.991Z,9.03
2022-11-07T03:38:26.167Z,9.01
2022-11-07T03:40:43.110Z,9.01
2022-11-07T03:43:01.052Z,9.00
2022-11-07T03:45:18.013Z,8.99
2022-11-07T03:47:34.840Z,9.01
2022-11-07T03:49:51.856Z,8.97
2022-11-07T03:52:08.839Z,8.97
2022-11-07T03:54:25.748Z,8.97
2022-11-07T03:56:42.755Z,8.98
2022-11-07T03:58:59.677Z,8.97
2022-11-07T04:01:16.756Z,8.98
2022-11-07T04:03:33.778Z,9.00
2022-11-07T04:05:51.400Z,9.00
2022-11-07T04:08:08.450Z,9.02
2022-11-07T04:10:25.701Z,8.98
2022-11-07T04:12:42.961Z,8.90
2022-11-07T04:14:59.957Z,8.83
2022-11-07T04:17:16.992Z,8.80
2022-11-07T04:19:34.035Z,8.76
2022-11-07T04:21:51.267Z,8.75
2022-11-07T04:24:09.507Z,8.77
2022-11-07T04:26:26.535Z,8.74
2022-11-07T04:28:43.440Z,8.71
2022-11-07T04:31:01.335Z,8.64
2022-11-07T04:33:18.647Z,8.53
2022-11-07T04:35:36.883Z,8.52
2022-11-07T04:37:53.837Z,8.47
2022-11-07T04:40:10.807Z,8.44
2022-11-07T04:42:29.106Z,8.39
2022-11-07T04:44:46.321Z,8.35
2022-11-07T04:47:03.617Z,8.33
2022-11-07T04:49:21.665Z,8.28
2022-11-07T04:51:38.631Z,8.26
2022-11-07T04:53:55.474Z,8.24
2022-11-07T04:56:12.524Z,8.28
2022-11-07T04:58:29.784Z,8.29
2022-11-07T05:00:48.101Z,8.34
2022-11-07T05:03:05.179Z,8.38
2022-11-07T05:05:22.165Z,8.39
2022-11-07T05:07:39.431Z,8.40
2022-11-07T05:09:57.069Z,8.42
2022-11-07T05:12:15.283Z,8.45
2022-11-07T05:14:32.496Z,8.47
2022-11-07T05:16:49.527Z,8.49
2022-11-07T05:19:06.477Z,8.50
2022-11-07T05:21:23.796Z,8.54
2022-11-07T05:23:40.766Z,8.55
2022-11-07T05:25:57.878Z,8.59
2022-11-07T05:28:15.130Z,8.63
2022-11-07T05:30:32.404Z,8.64
2022-11-07T05:32:49.409Z,8.65
2022-11-07T05:35:06.667Z,8.65
2022-11-07T05:37:23.683Z,8.70
2022-11-07T05:39:40.605Z,8.77
2022-11-07T05:41:57.607Z,8.75
2022-11-07T05:44:14.818Z,8.75
2022-11-07T05:46:32.088Z,8.77
2022-11-07T05:48:48.983Z,8.80
2022-11-07T05:51:05.897Z,8.79
2022-11-07T05:53:22.958Z,8.77
2022-11-07T05:55:40.966Z,8.79
2022-11-07T05:57:59.853Z,8.69
2022-11-07T06:00:18.830Z,8.68
2022-11-07T06:02:35.906Z,8.66
2022-11-07T06:04:52.949Z,8.59
2022-11-07T06:07:09.941Z,8.61
2022-11-07T06:09:26.970Z,8.64
2022-11-07T06:11:43.986Z,8.69
2022-11-07T06:14:01.169Z,8.75
2022-11-07T06:16:18.253Z,8.80
2022-11-07T06:18:38.991Z,8.82
2022-11-07T06:20:58.307Z,8.88
2022-11-07T06:23:15.648Z,8.92
2022-11-07T06:25:33.004Z,8.98
2022-11-07T06:27:49.923Z,9.07
2022-11-07T06:30:06.979Z,9.19
2022-11-07T06:32:24.214Z,9.27
2022-11-07T06:34:41.193Z,9.37
2022-11-07T06:37:02.862Z,9.45
2022-11-07T06:39:20.697Z,9.49
2022-11-07T06:41:37.978Z,9.53
2022-11-07T06:43:55.154Z,9.60
2022-11-07T06:46:12.074Z,9.65
2022-11-07T06:48:29.315Z,9.67
2022-11-07T06:50:48.676Z,9.76
2022-11-07T06:53:05.679Z,9.76
2022-11-07T06:55:23.592Z,9.81
2022-11-07T06:57:40.630Z,9.84
2022-11-07T06:59:57.875Z,9.97
2022-11-07T07:02:25.961Z,10.00
2022-11-07T07:04:51.784Z,10.03
2022-11-07T07:07:08.802Z,10.05
2022-11-07T07:09:26.975Z,10.08
2022-11-07T07:11:43.883Z,10.07
2022-11-07T07:14:02.298Z,10.11
2022-11-07T07:16:19.874Z,10.10
2022-11-07T07:18:37.179Z,10.14
2022-11-07T07:20:54.169Z,10.17
2022-11-07T07:23:12.462Z,10.19
2022-11-07T07:25:29.315Z,10.23
2022-11-07T07:27:46.558Z,10.30
2022-11-07T07:30:03.560Z,10.29
2022-11-07T07:32:21.796Z,10.32
2022-11-07T07:34:38.836Z,10.34
2022-11-07T07:36:56.073Z,10.38
2022-11-07T07:39:14.300Z,10.42
2022-11-07T07:41:33.959Z,10.46
2022-11-07T07:43:54.780Z,10.51
2022-11-07T07:46:11.749Z,10.52
2022-11-07T07:48:31.162Z,10.59
2022-11-07T07:50:48.088Z,10.69
2022-11-07T07:53:09.115Z,10.70
2022-11-07T07:55:26.469Z,10.75
2022-11-07T07:57:43.726Z,10.78
2022-11-07T08:00:00.995Z,10.77
2022-11-07T08:02:18.347Z,10.81
2022-11-07T08:04:35.418Z,10.82
2022-11-07T08:06:52.653Z,10.81
2022-11-07T08:09:09.567Z,10.89
2022-11-07T08:11:27.818Z,10.84
2022-11-07T08:13:44.824Z,10.86
2022-11-07T08:16:01.776Z,10.85
2022-11-07T08:18:18.723Z,10.80
2022-11-07T08:20:35.661Z,10.83
2022-11-07T08:22:52.597Z,10.80
2022-11-07T08:25:09.804Z,10.82
2022-11-07T08:27:26.818Z,10.83
2022-11-07T08:29:44.115Z,10.91
2022-11-07T08:32:01.406Z,10.88
2022-11-07T08:34:18.479Z,11.01
2022-11-07T08:36:35.461Z,11.05
2022-11-07T08:38:52.544Z,11.10
2022-11-07T08:41:09.482Z,11.12
2022-11-07T08:43:27.718Z,11.11
2022-11-07T08:45:44.962Z,11.12
2022-11-07T08:48:01.910Z,11.12
2022-11-07T08:50:18.967Z,11.06
2022-11-07T08:52:35.961Z,11.08
2022-11-07T08:54:53.218Z,11.09
2022-11-07T08:57:10.440Z,11.11
2022-11-07T08:59:27.537Z,11.10
2022-11-07T09:02:15.032Z,11.26
2022-11-07T09:04:22.542Z,11.30
2022-11-07T09:06:39.401Z,11.30
2022-11-07T09:08:56.328Z,11.30
2022-11-07T09:11:13.315Z,11.33
2022-11-07T09:13:30.270Z,11.34
2022-11-07T09:15:51.029Z,11.37
2022-11-07T09:18:08.924Z,11.40
2022-11-07T09:20:26.235Z,11.46
2022-11-07T09:22:44.494Z,11.49
2022-11-07T09:25:01.816Z,11.54
2022-11-07T09:27:18.818Z,11.56
2022-11-07T09:29:35.853Z,11.64
2022-11-07T09:31:52.814Z,11.66
2022-11-07T09:34:10.828Z,11.68
2022-11-07T09:36:27.796Z,11.69
2022-11-07T09:38:45.302Z,11.77
2022-11-07T09:41:02.233Z,11.78
2022-11-07T09:43:19.512Z,11.84
2022-11-07T09:45:36.525Z,11.81
2022-11-07T09:47:55.463Z,11.79
2022-11-07T09:50:12.302Z,11.82
2022-11-07T09:52:29.653Z,11.80
2022-11-07T09:54:47.195Z,11.84
2022-11-07T09:57:05.217Z,11.86
2022-11-07T09:59:22.852Z,11.94
2022-11-07T10:01:42.829Z,12.01
2022-11-07T10:06:36.780Z,12.22
2022-11-07T10:08:53.822Z,12.15
2022-11-07T10:11:10.939Z,12.18
2022-11-07T10:13:28.105Z,12.19
2022-11-07T10:15:45.142Z,12.14
2022-11-07T10:18:02.304Z,12.15
2022-11-07T10:20:24.329Z,12.18
2022-11-07T10:22:42.016Z,12.19
2022-11-07T10:25:00.373Z,12.18
2022-11-07T10:27:17.673Z,12.24
2022-11-07T10:29:37.143Z,12.35
2022-11-07T10:31:57.493Z,12.32
2022-11-07T10:34:14.448Z,12.33
2022-11-07T10:36:31.822Z,12.53
2022-11-07T10:38:48.805Z,12.59
2022-11-07T10:41:05.683Z,12.64
2022-11-07T10:43:25.768Z,12.69
2022-11-07T10:45:45.341Z,12.76
2022-11-07T10:48:02.696Z,12.88
2022-11-07T10:50:25.223Z,12.90
2022-11-07T10:52:42.224Z,13.01
2022-11-07T10:54:59.537Z,12.92
2022-11-07T10:57:16.540Z,12.89
2022-11-07T10:59:36.574Z,12.92
2022-11-07T11:01:54.201Z,13.05
2022-11-07T11:04:12.141Z,13.04
2022-11-07T11:06:29.068Z,13.21
2022-11-07T11:08:46.085Z,13.26
2022-11-07T11:11:05.222Z,13.36
2022-11-07T11:13:22.200Z,13.35
2022-11-07T11:15:39.602Z,13.41
2022-11-07T11:17:56.727Z,13.47
2022-11-07T11:20:14.844Z,13.42
2022-11-07T11:22:32.797Z,13.42
2022-11-07T11:24:49.644Z,13.32
2022-11-07T11:27:06.719Z,13.30
2022-11-07T11:29:23.936Z,13.37
2022-11-07T11:31:40.940Z,13.44
2022-11-07T11:33:58.136Z,13.53
2022-11-07T11:36:15.117Z,13.62
2022-11-07T11:38:32.171Z,13.68
2022-11-07T11:40:49.175Z,13.67
2022-11-07T11:43:07.126Z,13.69
2022-11-07T11:45:24.028Z,13.83
2022-11-07T11:47:41.048Z,13.88
2022-11-07T11:49:58.270Z,13.84
2022-11-07T11:52:15.546Z,13.83
2022-11-07T11:54:32.780Z,13.75
2022-11-07T11:56:50.066Z,13.83
2022-11-07T11:59:07.297Z,13.77
2022-11-07T12:03:46.479Z,13.85
2022-11-07T12:06:03.593Z,13.83
2022-11-07T12:08:20.637Z,13.87
2022-11-07T12:10:38.583Z,13.86
2022-11-07T12:12:55.835Z,13.80
2022-11-07T12:15:12.684Z,13.64
2022-11-07T12:17:29.712Z,13.62
2022-11-07T12:19:47.551Z,13.63
2022-11-07T12:28:44.084Z,13.57
2022-11-07T12:31:01.118Z,13.65
2022-11-07T12:33:18.652Z,13.68
2022-11-07T12:35:35.758Z,13.81
2022-11-07T12:37:53.009Z,13.81
2022-11-07T12:40:10.058Z,13.88
2022-11-07T12:42:27.088Z,13.87
2022-11-07T12:44:44.001Z,13.87
2022-11-07T12:47:01.240Z,13.87
2022-11-07T12:49:18.300Z,13.76
2022-11-07T12:51:36.327Z,13.71
2022-11-07T12:53:53.308Z,13.79
2022-11-07T12:56:12.907Z,13.67
2022-11-07T12:58:29.853Z,13.63
2022-11-07T13:00:46.953Z,13.64
2022-11-07T13:03:03.993Z,13.68
2022-11-07T13:05:21.036Z,13.68
2022-11-07T13:07:37.967Z,13.77
2022-11-07T13:09:56.018Z,13.73
2022-11-07T13:12:12.936Z,13.74
2022-11-07T13:14:30.227Z,13.71
2022-11-07T13:16:47.318Z,13.75
2022-11-07T13:19:05.267Z,13.65
2022-11-07T13:21:22.502Z,13.73
2022-11-07T13:23:40.937Z,13.70
2022-11-07T13:25:58.954Z,13.61
2022-11-07T13:28:15.918Z,13.61
2022-11-07T13:30:33.128Z,13.64
2022-11-07T13:32:50.184Z,13.64
2022-11-07T13:35:07.179Z,13.65
2022-11-07T13:37:24.206Z,13.58
2022-11-07T13:39:42.154Z,13.50
2022-11-07T13:41:59.102Z,13.49
2022-11-07T13:44:16.039Z,13.46
2022-11-07T13:46:33.123Z,13.45
2022-11-07T13:48:50.526Z,13.42
2022-11-07T13:51:07.771Z,13.42
2022-11-07T13:53:24.835Z,13.28
2022-11-07T13:55:43.293Z,13.35
2022-11-07T13:58:00.586Z,13.32
2022-11-07T14:00:17.635Z,13.29
2022-11-07T14:02:34.848Z,13.27
2022-11-07T14:05:14.766Z,13.26
2022-11-07T14:07:29.333Z,13.30
2022-11-07T14:09:46.214Z,13.30
2022-11-07T14:12:04.205Z,13.27
2022-11-07T14:14:21.444Z,13.27
2022-11-07T14:16:38.797Z,13.31
2022-11-07T14:18:55.607Z,13.36
2022-11-07T14:21:12.644Z,13.33
2022-11-07T14:23:30.679Z,13.36
2022-11-07T14:25:47.868Z,13.40
2022-11-07T14:28:04.805Z,13.50
2022-11-07T14:30:21.809Z,13.45
2022-11-07T14:32:39.826Z,13.44
2022-11-07T14:34:56.806Z,13.36
2022-11-07T14:37:13.758Z,13.33
2022-11-07T14:39:30.708Z,13.28
2022-11-07T14:41:47.633Z,13.25
2022-11-07T14:44:04.881Z,13.20
2022-11-07T14:46:22.978Z,13.19
2022-11-07T14:48:39.935Z,13.19
2022-11-07T14:50:58.275Z,13.15
2022-11-07T14:53:16.152Z,13.12
2022-11-07T14:55:33.102Z,13.08
2022-11-07T14:57:50.018Z,13.05
2022-11-07T15:00:06.898Z,13.03
2022-11-07T15:02:26.874Z,13.06
2022-11-07T15:04:43.873Z,13.02
2022-11-07T15:07:00.898Z,13.04
2022-11-07T15:09:19.897Z,13.05
2022-11-07T15:11:37.172Z,13.06
2022-11-07T15:13:55.182Z,13.05
2022-11-07T15:16:12.418Z,12.98
2022-11-07T15:18:29.649Z,12.98
2022-11-07T15:20:46.575Z,12.92
2022-11-07T15:23:03.802Z,12.87
2022-11-07T15:25:20.831Z,12.86
2022-11-07T15:27:37.745Z,12.81
2022-11-07T15:29:55.008Z,12.79
2022-11-07T15:32:12.289Z,12.78
2022-11-07T15:34:56.950Z,12.73
2022-11-07T15:37:06.362Z,12.69
2022-11-07T15:39:23.315Z,12.69
2022-11-07T15:41:41.889Z,12.66
2022-11-07T15:43:58.915Z,12.68
2022-11-07T15:46:16.792Z,12.64
2022-11-07T15:48:39.749Z,12.61
2022-11-07T15:50:58.300Z,12.58
2022-11-07T15:53:15.505Z,12.54
2022-11-07T15:55:33.711Z,12.52
2022-11-07T15:57:50.754Z,12.52
2022-11-07T16:00:07.696Z,12.50
2022-11-07T16:02:25.113Z,12.50
2022-11-07T16:04:43.177Z,12.46
2022-11-07T16:07:00.444Z,12.45
2022-11-07T16:09:17.663Z,12.44
2022-11-07T16:11:35.018Z,12.41
2022-11-07T16:13:59.237Z,12.40
2022-11-07T16:16:21.349Z,12.39
2022-11-07T16:18:38.349Z,12.39
2022-11-07T16:20:55.470Z,12.39
2022-11-07T16:23:12.487Z,12.38
2022-11-07T16:25:29.462Z,12.36
2022-11-07T16:27:46.706Z,12.36
2022-11-07T16:30:03.709Z,12.34
2022-11-07T16:32:20.951Z,12.32
2022-11-07T16:34:37.888Z,12.32
2022-11-07T16:36:54.927Z,12.30
2022-11-07T16:39:13.141Z,12.29
2022-11-07T16:41:30.197Z,12.29
2022-11-07T16:43:47.158Z,12.28
2022-11-07T16:46:04.169Z,12.29
2022-11-07T16:48:21.488Z,12.26
2022-11-07T16:50:38.523Z,12.25
2022-11-07T16:52:55.665Z,12.23
2022-11-07T16:55:12.717Z,12.24
2022-11-07T16:57:29.805Z,12.23
2022-11-07T16:59:47.810Z,12.22
2022-11-07T17:02:08.905Z,12.21
2022-11-07T17:04:28.646Z,12.20
2022-11-07T17:06:45.630Z,12.18
2022-11-07T17:09:08.972Z,12.16
2022-11-07T17:11:30.101Z,12.15
2022-11-07T17:13:47.213Z,12.12
2022-11-07T17:16:04.084Z,12.12
2022-11-07T17:18:21.748Z,12.15
2022-11-07T17:20:50.855Z,12.10
2022-11-07T17:23:08.595Z,12.09
2022-11-07T17:25:25.925Z,12.08
2022-11-07T17:27:42.923Z,12.10
2022-11-07T17:30:03.333Z,12.07
2022-11-07T17:32:24.543Z,12.07
2022-11-07T17:34:42.910Z,12.05
2022-11-07T17:36:59.898Z,12.03
2022-11-07T17:39:16.852Z,12.01
2022-11-07T17:41:33.796Z,12.00
2022-11-07T17:43:51.020Z,12.01
2022-11-07T17:46:08.289Z,11.99
2022-11-07T17:48:25.522Z,12.00
2022-11-07T17:50:42.869Z,12.01
2022-11-07T17:53:00.131Z,12.01
2022-11-07T17:55:17.527Z,12.01
2022-11-07T17:57:34.457Z,12.03
2022-11-07T17:59:51.403Z,11.99
2022-11-07T18:02:08.660Z,11.90
2022-11-07T18:04:26.029Z,11.78
2022-11-07T18:06:42.966Z,11.68
2022-11-07T18:09:00.556Z,11.65
2022-11-07T18:11:18.666Z,11.61
2022-11-07T18:13:35.614Z,11.58
2022-11-07T18:15:52.896Z,11.49
2022-11-07T18:18:11.054Z,11.45
2022-11-07T18:20:28.656Z,11.36
2022-11-07T18:22:46.589Z,11.33
2022-11-07T18:25:03.839Z,11.32
2022-11-07T18:27:20.879Z,11.26
2022-11-07T18:29:38.329Z,11.22
2022-11-07T18:31:55.288Z,11.18
2022-11-07T18:34:12.342Z,11.15
2022-11-07T18:36:29.315Z,11.14
2022-11-07T18:38:46.214Z,11.12
2022-11-07T18:41:03.193Z,11.08
2022-11-07T18:43:20.115Z,11.10
2022-11-07T18:45:37.428Z,11.14
2022-11-07T18:47:55.327Z,11.15
2022-11-07T18:50:12.600Z,11.18
2022-11-07T18:52:30.884Z,11.22
2022-11-07T18:54:47.821Z,11.20
2022-11-07T18:57:04.880Z,11.16
2022-11-07T18:59:22.077Z,11.09
2022-11-07T19:01:39.123Z,11.05
2022-11-07T19:03:56.273Z,10.91
2022-11-07T19:06:13.314Z,10.90
2022-11-07T19:08:30.328Z,10.87
2022-11-07T19:10:47.351Z,10.79
2022-11-07T19:13:08.115Z,10.70
2022-11-07T19:15:25.522Z,10.65
2022-11-07T19:17:42.564Z,10.64
2022-11-07T19:19:59.627Z,10.63
2022-11-07T19:22:16.899Z,10.58
2022-11-07T19:24:34.223Z,10.50
2022-11-07T19:26:52.522Z,10.53
2022-11-07T19:29:09.548Z,10.47
2022-11-07T19:31:30.683Z,10.45
2022-11-07T19:33:51.086Z,10.43
2022-11-07T19:36:08.327Z,10.45
2022-11-07T19:38:25.657Z,10.53
2022-11-07T19:40:42.671Z,10.48
2022-11-07T19:42:59.931Z,10.44
2022-11-07T19:45:16.858Z,10.36
2022-11-07T19:47:34.213Z,10.28
2022-11-07T19:49:51.218Z,10.25
2022-11-07T19:52:08.552Z,10.20
2022-11-07T19:54:25.549Z,10.13
2022-11-07T19:56:42.514Z,10.10
2022-11-07T19:58:59.787Z,10.02
2022-11-07T20:01:18.135Z,9.99
2022-11-07T20:03:35.600Z,9.92
2022-11-07T20:05:52.648Z,9.86
2022-11-07T20:08:09.593Z,9.84
2022-11-07T20:10:26.564Z,9.81
2022-11-07T20:12:43.789Z,9.76
2022-11-07T20:15:01.040Z,9.72
2022-11-07T20:17:18.068Z,9.68
2022-11-07T20:19:35.555Z,9.63
2022-11-07T20:21:52.804Z,9.58
2022-11-07T20:24:09.832Z,9.56
2022-11-07T20:26:26.800Z,9.57
2022-11-07T20:28:44.099Z,9.57
2022-11-07T20:31:01.188Z,9.59
2022-11-07T20:33:18.348Z,9.60
2022-11-07T20:35:35.806Z,9.64
2022-11-07T20:37:52.852Z,9.67
2022-11-07T20:40:09.923Z,9.68
2022-11-07T20:42:27.000Z,9.69
2022-11-07T20:44:43.878Z,9.70
2022-11-07T20:47:01.218Z,9.74
2022-11-07T20:49:18.161Z,9.77
2022-11-07T20:51:35.188Z,9.83
2022-11-07T20:53:52.466Z,9.84
2022-11-07T20:56:09.361Z,9.80
2022-11-07T20:58:26.684Z,9.75
2022-11-07T21:00:44.078Z,9.71
2022-11-07T21:03:01.056Z,9.61
2022-11-07T21:05:18.655Z,9.57
2022-11-07T21:07:35.841Z,9.49
2022-11-07T21:09:53.844Z,9.43
2022-11-07T21:12:10.749Z,9.42
2022-11-07T21:14:27.933Z,9.41
2022-11-07T21:16:45.049Z,9.34
2022-11-07T21:19:02.114Z,9.29
2022-11-07T21:21:19.210Z,9.27
2022-11-07T21:23:36.110Z,9.22
2022-11-07T21:25:53.061Z,9.16
2022-11-07T21:28:10.062Z,9.10
2022-11-07T21:30:27.328Z,9.07
2022-11-07T21:32:44.611Z,9.05
2022-11-07T21:35:01.603Z,8.98
2022-11-07T21:37:18.918Z,8.97
2022-11-07T21:39:36.166Z,8.93
2022-11-07T21:41:53.418Z,8.94
2022-11-07T21:44:10.384Z,8.91
2022-11-07T21:46:28.331Z,8.84
2022-11-07T21:48:46.470Z,8.83
2022-11-07T21:51:03.723Z,8.77
2022-11-07T21:53:20.806Z,8.74
2022-11-07T21:55:37.771Z,8.68
2022-11-07T21:57:54.894Z,8.65
2022-11-07T22:00:13.209Z,8.64
2022-11-07T22:02:30.349Z,8.59
2022-11-07T22:04:47.356Z,8.59
2022-11-07T22:07:04.471Z,8.57
2022-11-07T22:09:21.637Z,8.52
2022-11-07T22:11:38.711Z,8.46
2022-11-07T22:13:55.635Z,8.42
2022-11-07T22:16:12.713Z,8.40
2022-11-07T22:18:29.940Z,8.38
2022-11-07T22:20:47.340Z,8.35
2022-11-07T22:23:04.689Z,8.32
2022-11-07T22:25:22.584Z,8.32
2022-11-07T22:27:39.804Z,8.29
2022-11-07T22:29:56.722Z,8.30
2022-11-07T22:32:13.762Z,8.29
2022-11-07T22:34:30.838Z,8.29
2022-11-07T22:36:48.135Z,8.24
2022-11-07T22:39:05.148Z,8.17
2022-11-07T22:41:23.027Z,8.13
2022-11-07T22:43:40.017Z,8.16
2022-11-07T22:45:57.040Z,8.16
2022-11-07T22:48:14.140Z,8.10
2022-11-07T22:50:32.823Z,8.06
2022-11-07T22:52:49.858Z,8.02
2022-11-07T22:55:06.933Z,7.96
2022-11-07T22:57:25.251Z,7.93
2022-11-07T22:59:42.375Z,7.89
2022-11-07T23:02:00.482Z,7.86
2022-11-07T23:04:17.598Z,7.82
2022-11-07T23:06:37.179Z,7.82
2022-11-07T23:08:54.231Z,7.80
2022-11-07T23:11:44.805Z,7.75
2022-11-07T23:13:48.640Z,7.74
2022-11-07T23:16:05.714Z,7.68
2022-11-07T23:18:24.691Z,7.64
2022-11-07T23:20:42.019Z,7.63
2022-11-07T23:22:59.018Z,7.58
2022-11-07T23:25:16.241Z,7.54
2022-11-07T23:27:33.179Z,7.52
2022-11-07T23:29:51.065Z,7.49
2022-11-07T23:32:08.319Z,7.47
2022-11-07T23:34:25.613Z,7.46
2022-11-07T23:36:42.743Z,7.41
2022-11-07T23:38:59.814Z,7.44
2022-11-07T23:41:17.710Z,7.43
2022-11-07T23:43:34.884Z,7.43
2022-11-07T23:45:52.945Z,7.38
2022-11-07T23:48:12.668Z,7.33
2022-11-07T23:50:29.788Z,7.36
2022-11-07T23:52:46.928Z,7.35
2022-11-07T23:55:04.167Z,7.30
2022-11-07T23:57:21.638Z,7.29
2022-11-07T23:59:39.971Z,7.26
